Flight Track Log - Related Links

Times and Time Zones

All times are in EDT time to prevent confusion due to time zone crossing. See the ASQ4976 flight status page for this flight to view local times or setup timezone preferences in your user account.

Time Position Orientation Groundspeed Altitude Reporting Facility
EDT Latitude Longitude Course Direction KTS MPH feet Rate Location/Type
Sat 11:12:29 AM 42.3667 -70.9833 90° East 157 181 700  Level KA90
Sat 11:13:11 AM 42.3667 -70.9333 90° East 188 216 1,800 2,198 Climbing KA90
Sat 11:14:40 AM 42.3992 -70.8122 70° East 272 313 5,500 2,779 Climbing Boston Center
Sat 11:15:40 AM 42.4631 -70.7683 27° Northeast 237 273 8,700 2,700 Climbing Boston Center
Sat 11:16:40 AM 42.5286 -70.8231 328° Northwest 207 238 10,900 1,850 Climbing Boston Center
Sat 11:17:40 AM 42.5819 -70.9231 306° West 254 292 12,400 1,650 Climbing Boston Center
Sat 11:18:40 AM 42.6375 -71.0206 308° West 340 391 14,200 1,950 Climbing Boston Center
Sat 11:19:40 AM 42.7056 -71.1403 308° West 368 423 16,300 1,800 Climbing Boston Center
Sat 11:20:40 AM 42.7631 -71.2411 308° West 381 438 17,800 1,400 Climbing Boston Center
Sat 11:21:40 AM 42.7978 -71.3958 287° West 374 430 19,100 1,400 Climbing Boston Center
Sat 11:22:40 AM 42.8136 -71.5428 278° West 386 444 20,600 1,400 Climbing Boston Center
Sat 11:23:40 AM 42.8186 -71.6644 273° West 400 460 21,900 1,350 Climbing Boston Center
Sat 11:24:40 AM 42.8386 -71.8483 278° West 406 467 23,300 1,300 Climbing Boston Center
Sat 11:25:40 AM 42.8519 -72.0039 277° West 411 473 24,500 1,050 Climbing Boston Center
Sat 11:26:40 AM 42.8669 -72.1625 277° West 417 480 25,400 950 Climbing Boston Center
Sat 11:27:40 AM 42.8858 -72.3211 279° West 422 486 26,400 1,000 Climbing Boston Center
Sat 11:28:40 AM 42.9028 -72.4825 278° West 427 491 27,400 900 Climbing Boston Center
Sat 11:29:40 AM 42.9108 -72.6103 275° West 427 491 28,200 1,050 Climbing Boston Center
Sat 11:30:40 AM 42.9189 -72.7861 274° West 427 491 29,500 1,150 Climbing Boston Center
Sat 11:31:40 AM 42.9328 -72.9478 277° West 427 491 30,500 950 Climbing Boston Center
Sat 11:32:40 AM 42.9506 -73.1236 278° West 427 491 31,400 850 Climbing Boston Center
Sat 11:33:40 AM 42.9642 -73.2856 277° West 427 491 32,200 800 Climbing Boston Center
Sat 11:34:40 AM 42.9711 -73.4447 273° West 427 491 33,000 800 Climbing Boston Center
Sat 11:35:40 AM 42.9842 -73.6067 276° West 427 491 33,800 850 Climbing Boston Center
Sat 11:36:40 AM 42.9992 -73.7658 277° West 427 491 34,700 850 Climbing Boston Center
Sat 11:37:40 AM 43.0097 -73.9222 275° West 427 491 35,500 650 Climbing Boston Center
Sat 11:38:40 AM 43.0222 -74.0817 276° West 427 491 36,000 250 Climbing Boston Center
Sat 11:39:40 AM 43.0344 -74.2411 276° West 427 491 36,000  Level Boston Center
Sat 11:40:40 AM 43.0461 -74.4061 276° West 433 498 36,000  Level Boston Center
Sat 11:41:40 AM 43.0561 -74.5486 276° West 433 498 36,000  Level Boston Center
Sat 11:42:40 AM 43.0697 -74.7167 276° West 439 505 36,000  Level Boston Center
Sat 11:43:40 AM 43.0808 -74.8792 275° West 439 505 36,000  Level Boston Center
Sat 11:44:40 AM 43.0897 -75.0389 274° West 439 505 36,000  Level Boston Center
Sat 11:45:40 AM 43.1006 -75.2042 275° West 439 505 36,000  Level Boston Center
Sat 11:46:40 AM 43.1111 -75.3669 275° West 439 505 36,000  Level Boston Center
Sat 11:47:40 AM 43.1214 -75.5267 275° West 439 505 36,000  Level Boston Center
Sat 11:48:40 AM 43.1314 -75.6894 275° West 439 505 36,000  Level Boston Center
Sat 11:49:40 AM 43.1411 -75.8550 275° West 439 505 36,000  Level Boston Center
Sat 11:50:40 AM 43.1506 -76.0233 274° West 439 505 36,000  Level Boston Center
Sat 11:51:40 AM 43.1600 -76.1864 275° West 444 511 36,000  Level Boston Center
Sat 11:52:57 AM 43.1417 -76.4144 264° West 459 528 36,000  Level Cleveland Center
Sat 11:53:57 AM 43.1308 -76.5775 265° West 454 522 36,000  Level Cleveland Center
Sat 11:54:57 AM 43.1150 -76.7264 262° West 449 517 36,000  Level Cleveland Center
Sat 11:55:57 AM 43.1017 -76.8894 264° West 444 511 36,000  Level Cleveland Center
Sat 11:56:57 AM 43.0858 -77.0494 262° West 439 505 36,000  Level Cleveland Center
Sat 11:57:57 AM 43.0717 -77.2094 263° West 434 499 36,000  Level Cleveland Center
Sat 11:58:57 AM 43.0556 -77.3694 262° West 429 494 36,000  Level Cleveland Center
Sat 11:59:57 AM 43.0428 -77.5208 263° West 416 479 36,000  Level Cleveland Center
Sat 12:00:57 PM 43.0300 -77.6719 263° West 410 472 36,000  Level Cleveland Center
Sat 12:01:57 PM 43.0131 -77.8261 262° West 410 472 36,000  Level Cleveland Center
Sat 12:02:57 PM 42.9978 -77.9800 262° West 410 472 36,000  Level Cleveland Center
Sat 12:03:57 PM 42.9825 -78.1342 262° West 410 472 36,000  Level Cleveland Center
Sat 12:04:57 PM 42.9689 -78.2822 263° West 410 472 36,000  Level Cleveland Center
Sat 12:05:57 PM 42.9508 -78.4331 261° West 410 472 36,000  Level Cleveland Center
Sat 12:06:57 PM 42.9369 -78.5894 263° West 415 478 36,000  Level Cleveland Center
Sat 12:07:57 PM 42.9167 -78.7433 260° West 415 478 36,000  Level Cleveland Center
Sat 12:08:57 PM 42.8939 -78.8942 258° West 415 478 36,000  Level Cleveland Center
Sat 12:09:57 PM 42.8711 -79.0478 259° West 415 478 36,000  Level Cleveland Center
Sat 12:10:57 PM 42.8500 -79.1956 259° West 415 478 36,000  Level Cleveland Center
Sat 12:11:57 PM 42.8289 -79.3489 259° West 415 478 36,000  Level Cleveland Center
Sat 12:12:57 PM 42.8053 -79.4964 258° West 410 472 36,000 -500 Level Cleveland Center
Sat 12:13:57 PM 42.7858 -79.6439 260° West 410 472 35,000 -1,000 Descending Cleveland Center
Sat 12:14:57 PM 42.7619 -79.7942 258° West 410 472 34,000 -1,000 Descending Cleveland Center
Sat 12:15:57 PM 42.7481 -79.9500 263° West 410 472 33,000 -1,100 Descending Cleveland Center
Sat 12:16:57 PM 42.7386 -80.1253 266° West 415 478 31,800 -1,100 Descending Cleveland Center
Sat 12:17:57 PM 42.7328 -80.2750 267° West 415 478 30,800 -950 Descending Cleveland Center
Sat 12:18:57 PM 42.7269 -80.4278 267° West 405 466 29,900 -1,000 Descending Cleveland Center
Sat 12:19:57 PM 42.7186 -80.5831 266° West 405 466 28,800 -1,050 Descending Cleveland Center
Sat 12:20:57 PM 42.7144 -80.7331 268° West 405 466 27,800 -1,000 Descending Cleveland Center
Sat 12:21:57 PM 42.7058 -80.8769 265° West 395 455 26,800 -1,000 Descending Cleveland Center
Sat 12:22:57 PM 42.6886 -81.0208 261° West 395 455 25,800 -1,000 Descending Cleveland Center
Sat 12:23:57 PM 42.6756 -81.1650 263° West 390 449 24,800 -900 Descending Cleveland Center
Sat 12:24:57 PM 42.6581 -81.3089 261° West 385 443 24,000 -700 Descending Cleveland Center
Sat 12:25:57 PM 42.6425 -81.4383 261° West 391 450 23,400 -800 Descending Cleveland Center
Sat 12:26:57 PM 42.6267 -81.5764 261° West 383 441 22,400 -1,000 Descending Cleveland Center
Sat 12:27:57 PM 42.6111 -81.7117 261° West 378 435 21,400 -1,000 Descending Cleveland Center
Sat 12:28:57 PM 42.5928 -81.8581 260° West 372 428 20,400 -1,100 Descending Cleveland Center
Sat 12:29:57 PM 42.5767 -81.9931 261° West 372 428 19,200 -1,300 Descending Cleveland Center
Sat 12:30:57 PM 42.5583 -82.1250 259° West 372 428 17,800 -1,680 Descending Cleveland Center
Sat 12:32:02 PM 42.5436 -82.2711 262° West 353 406 15,700 -1,800 Descending Cleveland Center
Sat 12:32:57 PM 42.5253 -82.3833 258° West 366 421 14,200 -1,617 Descending Cleveland Center
Sat 12:33:57 PM 42.5108 -82.5069 261° West 352 405 12,600 -1,150 Descending Cleveland Center
Sat 12:34:57 PM 42.4756 -82.6128 246° West 329 379 11,900 -800 Descending Cleveland Center
Sat 12:35:57 PM 42.4261 -82.6956 231° Southwest 307 353 11,000 -900 Descending Cleveland Center
Sat 12:36:57 PM 42.3853 -82.7675 232° Southwest 278 320 10,100 -950 Descending Cleveland Center
Sat 12:37:57 PM 42.3486 -82.8364 234° Southwest 253 291 9,100 -1,100 Descending Cleveland Center
Sat 12:38:57 PM 42.3197 -82.9139 243° Southwest 234 269 7,900 -1,200 Descending Cleveland Center
Sat 12:39:17 PM 42.3131 -82.9419 252° West 222 255 7,500 -900 Descending Cleveland Center
Sat 12:39:57 PM 42.2953 -82.9889 243° Southwest 222 255 7,000 -393 Descending Cleveland Center
Sat 12:40:18 PM 42.2906 -83.0225 259° West 234 269 7,100  Climbing Cleveland Center
Sat 12:40:57 PM 42.2894 -83.0728 268° West 217 250 7,000  Descending Cleveland Center
Sat 12:41:19 PM 42.3056 -83.1017 307° West 242 278 7,100 -300 Climbing Cleveland Center
Sat 12:41:57 PM 42.3408 -83.1058 355° North 163 188 6,700 -885 Descending Cleveland Center
Sat 12:42:20 PM 42.3725 -83.0875 23° Northeast 246 283 6,200 -456 Descending Cleveland Center
Sat 12:43:16 PM 42.4253 -83.0586 22° Northeast 219 252 6,100 -103 Descending Cleveland Center
Sat 12:44:17 PM 42.4614 -83.1161 310° West 201 231 6,000 -49 Descending Cleveland Center
Sat 12:45:19 PM 42.4436 -83.1747 248° West 169 194 6,000 -585 Level Cleveland Center
Sat 12:46:20 PM 42.3992 -83.2036 206° Southwest 173 199 4,800 -1,033 Descending Cleveland Center
Sat 12:47:21 PM 42.3567 -83.2328 207° Southwest 166 191 3,900 -934 Descending Cleveland Center
Sat 12:48:22 PM 42.3142 -83.2647 209° Southwest 170 196 2,900 -934 Descending Cleveland Center
Sat 12:49:23 PM 42.2739 -83.2939 208° Southwest 158 182 2,000 -885 Descending Cleveland Center

Login

Don't have an account? Register now (free) for customized features, flight alerts, and more!